Dom Joaquim, Brazil
Current Conditions -  °F | °C
As of 6:00 AM on Monday 22 Dec 2014 (Local Time) from SBLS Reporting Station
Light Rain Light Rain  
Wind Chill: 68°   Ceiling: 1500
Heat Index: 68°   Visibility: 2.8mi
Dew Point: 66°   Wind: 0mph
Humidity: 94%   Direction: NA
Pressure: 30.06"   Gusts: NA
Location:  18.97°S, 43.26°W
Report Text: SBLS 220800Z 00000KT 4500 -RA SCT003 BKN015 BKN070 20/19 Q1018
Loading
Personal Weather Stations






























Interactive Weather Map New forecast layout! Learn more

10-Day Weather Forecast

Advertisements
Track Severe Weather on mobile